createdAt,value
2018-02-27T00:02:21.462Z,1021.4
2018-02-27T00:07:21.668Z,1021.3
2018-02-27T00:12:21.440Z,1021.3
2018-02-27T00:17:21.456Z,1021.2
2018-02-27T00:22:21.680Z,1021.2
2018-02-27T00:27:21.502Z,1021.3
2018-02-27T00:32:21.614Z,1021.2
2018-02-27T00:37:21.840Z,1021.2
2018-02-27T00:42:21.809Z,1021
2018-02-27T00:47:21.587Z,1021.1
2018-02-27T00:52:21.502Z,1021
2018-02-27T00:57:21.712Z,1021.1
2018-02-27T01:02:21.623Z,1021.1
2018-02-27T01:07:21.743Z,1021
2018-02-27T01:12:21.715Z,1021
2018-02-27T01:17:21.658Z,1021.1
2018-02-27T01:22:21.689Z,1021
2018-02-27T01:27:21.773Z,1021
2018-02-27T01:32:21.717Z,1021
2018-02-27T01:37:21.788Z,1021
2018-02-27T01:42:21.613Z,1021
2018-02-27T01:47:21.623Z,1020.9
2018-02-27T01:52:21.614Z,1021.1
2018-02-27T01:57:21.855Z,1020.9
2018-02-27T02:02:21.790Z,1020.9
2018-02-27T02:07:21.828Z,1020.8
2018-02-27T02:12:21.786Z,1020.8
2018-02-27T02:17:21.974Z,1020.8
2018-02-27T02:22:21.924Z,1020.9
2018-02-27T02:27:21.803Z,1020.8
2018-02-27T02:32:21.985Z,1020.8
2018-02-27T02:37:21.782Z,1020.7
2018-02-27T02:42:21.936Z,1020.8
2018-02-27T02:47:21.994Z,1020.8
2018-02-27T02:52:21.784Z,1020.7
2018-02-27T02:57:21.806Z,1020.7
2018-02-27T03:02:21.957Z,1020.6
2018-02-27T03:07:22.001Z,1020.7
2018-02-27T03:12:21.924Z,1020.6
2018-02-27T03:17:21.969Z,1020.6
2018-02-27T03:22:22.013Z,1020.6
2018-02-27T03:27:21.934Z,1020.7
2018-02-27T03:32:21.977Z,1020.6
2018-02-27T03:37:22.018Z,1020.8
2018-02-27T03:42:22.063Z,1020.6
2018-02-27T03:47:22.008Z,1020.6
2018-02-27T03:52:21.816Z,1020.7
2018-02-27T03:57:21.823Z,1020.7
2018-02-27T04:02:21.964Z,1020.7
2018-02-27T04:07:21.959Z,1020.7
2018-02-27T04:12:22.037Z,1020.8
2018-02-27T04:17:21.829Z,1020.8
2018-02-27T04:22:21.981Z,1020.8
2018-02-27T04:27:22.025Z,1020.8
2018-02-27T04:32:21.840Z,1020.8
2018-02-27T04:37:25.363Z,1020.9
2018-02-27T04:42:30.473Z,1020.9
2018-02-27T04:47:25.560Z,1021
2018-02-27T04:52:25.583Z,1021
2018-02-27T04:57:25.384Z,1020.9
2018-02-27T05:02:25.385Z,1020.9
2018-02-27T05:07:25.580Z,1020.9
2018-02-27T05:12:25.611Z,1020.9
2018-02-27T05:17:25.579Z,1020.9
2018-02-27T05:22:25.355Z,1020.8
2018-02-27T05:27:25.629Z,1020.9
2018-02-27T05:32:25.387Z,1020.9
2018-02-27T05:37:25.400Z,1020.9
2018-02-27T05:42:25.409Z,1020.9
2018-02-27T05:47:25.406Z,1020.9
2018-02-27T05:52:25.409Z,1020.9
2018-02-27T05:57:25.620Z,1020.9
2018-02-27T06:02:25.412Z,1021
2018-02-27T06:07:25.470Z,1021
2018-02-27T06:12:25.628Z,1020.9
2018-02-27T06:17:25.574Z,1020.9
2018-02-27T06:22:25.563Z,1020.9
2018-02-27T06:27:25.698Z,1021
2018-02-27T06:32:25.414Z,1021
2018-02-27T06:37:25.657Z,1021
2018-02-27T06:42:25.620Z,1021.2
2018-02-27T06:47:25.659Z,1021
2018-02-27T06:52:25.565Z,1021
2018-02-27T06:57:25.601Z,1021
2018-02-27T07:02:25.645Z,1021.1
2018-02-27T07:07:25.671Z,1021
2018-02-27T07:12:25.459Z,1020.9
2018-02-27T07:17:25.647Z,1020.9
2018-02-27T07:22:25.674Z,1020.9
2018-02-27T07:27:25.607Z,1020.9
2018-02-27T07:32:25.641Z,1020.9
2018-02-27T07:37:25.677Z,1020.9
2018-02-27T07:42:25.820Z,1020.9
2018-02-27T07:47:25.496Z,1020.9
2018-02-27T07:52:25.747Z,1020.9
2018-02-27T07:57:25.780Z,1020.9
2018-02-27T08:02:25.510Z,1020.7
2018-02-27T08:07:25.785Z,1020.8
2018-02-27T08:12:25.486Z,1020.6
2018-02-27T08:17:25.624Z,1020.5
2018-02-27T08:22:25.680Z,1020.4
2018-02-27T08:27:25.687Z,1020.5
2018-02-27T08:32:25.702Z,1020.4
2018-02-27T08:37:25.673Z,1020.5
2018-02-27T08:42:25.702Z,1020.4
2018-02-27T08:47:25.883Z,1020.4
2018-02-27T08:52:25.889Z,1020.4
2018-02-27T08:57:25.910Z,1020.3
2018-02-27T09:02:25.861Z,1020.3
2018-02-27T09:07:25.680Z,1020.3
2018-02-27T09:12:25.657Z,1020.1
2018-02-27T09:17:25.856Z,1019.9
2018-02-27T09:22:25.656Z,1019.9
2018-02-27T09:27:30.634Z,1019.9
2018-02-27T09:32:35.961Z,1019.9
2018-02-27T09:37:30.754Z,1019.6
2018-02-27T09:42:30.826Z,1019.8
2018-02-27T09:47:30.825Z,1019.7
2018-02-27T09:52:30.828Z,1019.7
2018-02-27T09:57:30.840Z,1019.6
2018-02-27T10:02:30.910Z,1019.6
2018-02-27T10:07:31.108Z,1019.6
2018-02-27T10:12:31.036Z,1019.4
2018-02-27T10:17:31.022Z,1019.3
2018-02-27T10:22:30.898Z,1019.1
2018-02-27T10:27:31.520Z,1019.4
2018-02-27T10:32:30.951Z,1019.3
2018-02-27T10:37:31.069Z,1019.4
2018-02-27T10:42:31.179Z,1019.6
2018-02-27T10:47:30.938Z,1019.3
2018-02-27T10:52:31.089Z,1019.2
2018-02-27T10:57:31.250Z,1019.2
2018-02-27T11:02:31.187Z,1019.1
2018-02-27T11:07:31.174Z,1019.1
2018-02-27T11:12:31.118Z,1019.3
2018-02-27T11:17:31.145Z,1019.2
2018-02-27T11:22:31.169Z,1019.3
2018-02-27T11:27:31.334Z,1019.4
2018-02-27T11:32:31.345Z,1019.3
2018-02-27T11:37:31.095Z,1019.4
2018-02-27T11:42:31.125Z,1019.3
2018-02-27T11:47:31.378Z,1019.1
2018-02-27T11:52:31.126Z,1019.2
2018-02-27T11:57:31.321Z,1019.2
2018-02-27T12:02:31.354Z,1019.6
2018-02-27T12:07:31.324Z,1019.6
2018-02-27T12:12:31.147Z,1019.6
2018-02-27T12:17:31.325Z,1019.5
2018-02-27T12:22:31.547Z,1019.4
2018-02-27T12:27:31.413Z,1019.4
2018-02-27T12:32:31.282Z,1019.3
2018-02-27T12:37:31.301Z,1019.3
2018-02-27T12:42:31.302Z,1019.2
2018-02-27T12:47:31.386Z,1019.3
2018-02-27T12:52:31.381Z,1019.5
2018-02-27T12:57:31.389Z,1019.4
2018-02-27T13:02:31.556Z,1019.5
2018-02-27T13:07:31.774Z,1019.3
2018-02-27T13:12:31.738Z,1019.2
2018-02-27T13:17:31.770Z,1019.3
2018-02-27T13:22:31.797Z,1019.1
2018-02-27T13:27:31.737Z,1019.2
2018-02-27T13:32:31.774Z,1019.1
2018-02-27T13:37:32.029Z,1019.3
2018-02-27T13:42:31.977Z,1019.4
2018-02-27T13:47:32.107Z,1019.7
2018-02-27T13:52:32.177Z,1019.6
2018-02-27T13:57:31.950Z,1019.5
2018-02-27T14:02:32.151Z,1019.6
2018-02-27T14:07:31.938Z,1019.6
2018-02-27T14:12:31.968Z,1019.5
2018-02-27T14:17:32.002Z,1019.4
2018-02-27T14:22:37.484Z,1019.5
2018-02-27T14:27:42.571Z,1019.7
2018-02-27T14:32:37.380Z,1019.7
2018-02-27T14:37:37.414Z,1019.7
2018-02-27T14:42:37.503Z,1019.8
2018-02-27T14:47:37.505Z,1019.8
2018-02-27T14:52:37.408Z,1019.8
2018-02-27T14:57:37.509Z,1019.8
2018-02-27T15:02:37.381Z,1019.8
2018-02-27T15:07:37.419Z,1019.9
2018-02-27T15:12:37.277Z,1019.9
2018-02-27T15:17:37.746Z,1019.9
2018-02-27T15:22:37.516Z,1020
2018-02-27T15:27:37.946Z,1020.1
2018-02-27T15:32:39.099Z,1020.1
2018-02-27T15:37:37.743Z,1020.1
2018-02-27T15:42:37.709Z,1020.1
2018-02-27T15:47:37.899Z,1020.3
2018-02-27T15:52:37.950Z,1020.2
2018-02-27T15:57:37.857Z,1020.3
2018-02-27T16:02:37.892Z,1020.4
2018-02-27T16:07:37.937Z,1020.3
2018-02-27T16:12:37.743Z,1020.4
2018-02-27T16:17:55.843Z,1020.4
2018-02-27T16:22:45.890Z,1020.4
2018-02-27T16:27:45.871Z,1020.5
2018-02-27T16:32:49.322Z,1020.6
2018-02-27T16:37:45.850Z,1020.7
2018-02-27T16:42:46.457Z,1020.7
2018-02-27T16:47:45.866Z,1020.8
2018-02-27T16:52:45.950Z,1020.9
2018-02-27T16:57:47.319Z,1020.8
2018-02-27T17:02:45.939Z,1020.8
2018-02-27T17:07:45.950Z,1020.9
2018-02-27T17:12:46.005Z,1020.9
2018-02-27T17:17:46.080Z,1021
2018-02-27T17:22:46.232Z,1021
2018-02-27T17:27:46.761Z,1021.1
2018-02-27T17:32:46.021Z,1021.1
2018-02-27T17:37:46.060Z,1021.2
2018-02-27T17:42:46.079Z,1021.2
2018-02-27T17:47:49.189Z,1021.2
2018-02-27T17:52:46.218Z,1021.2
2018-02-27T17:57:47.829Z,1021.3
2018-02-27T18:02:46.720Z,1021.2
2018-02-27T18:07:46.884Z,1021.1
2018-02-27T18:12:46.742Z,1021.3
2018-02-27T18:17:48.387Z,1021.2
2018-02-27T18:22:46.648Z,1021.2
2018-02-27T18:27:47.262Z,1021.2
2018-02-27T18:32:46.876Z,1021.3
2018-02-27T18:37:46.196Z,1021.2
2018-02-27T18:42:46.068Z,1021.2
2018-02-27T18:47:46.061Z,1021.3
2018-02-27T18:52:46.185Z,1021.3
2018-02-27T18:57:46.082Z,1021.3
2018-02-27T19:02:46.055Z,1021.4
2018-02-27T19:07:46.055Z,1021.3
2018-02-27T19:12:49.881Z,1021.3
2018-02-27T19:17:53.410Z,1021.3
2018-02-27T19:22:48.320Z,1021.3
2018-02-27T19:27:49.508Z,1021.3
2018-02-27T19:32:48.430Z,1021.4
2018-02-27T19:37:48.318Z,1021.3
2018-02-27T19:42:48.490Z,1021.4
2018-02-27T19:47:48.314Z,1021.4
2018-02-27T19:52:48.424Z,1021.4
2018-02-27T19:57:48.463Z,1021.3
2018-02-27T20:02:48.332Z,1021.5
2018-02-27T20:07:48.319Z,1021.5
2018-02-27T20:12:48.508Z,1021.5
2018-02-27T20:17:48.528Z,1021.6
2018-02-27T20:22:48.450Z,1021.6
2018-02-27T20:27:48.432Z,1021.6
2018-02-27T20:32:48.526Z,1021.7
2018-02-27T20:37:48.889Z,1021.8
2018-02-27T20:42:48.792Z,1021.8
2018-02-27T20:47:48.898Z,1021.8
2018-02-27T20:52:48.810Z,1021.9
2018-02-27T20:57:49.130Z,1021.7
2018-02-27T21:02:49.144Z,1021.9
2018-02-27T21:07:49.295Z,1021.9
2018-02-27T21:12:49.309Z,1021.9
2018-02-27T21:17:49.365Z,1022
2018-02-27T21:22:49.570Z,1022
2018-02-27T21:27:49.382Z,1022.1
2018-02-27T21:32:49.556Z,1022.1
2018-02-27T21:37:49.600Z,1022.1
2018-02-27T21:42:49.424Z,1022.1
2018-02-27T21:47:49.485Z,1022.2
2018-02-27T21:52:49.515Z,1022.1
2018-02-27T21:57:49.746Z,1022.2
2018-02-27T22:02:49.507Z,1022.2
2018-02-27T22:07:49.790Z,1022.2
2018-02-27T22:12:49.768Z,1022.2
2018-02-27T22:17:49.796Z,1022.3
2018-02-27T22:22:49.986Z,1022.4
2018-02-27T22:27:49.925Z,1022.3
2018-02-27T22:32:49.941Z,1022.3
2018-02-27T22:37:49.992Z,1022.4
2018-02-27T22:42:49.818Z,1022.4
2018-02-27T22:47:49.943Z,1022.5
2018-02-27T22:52:49.876Z,1022.5
2018-02-27T22:57:51.049Z,1022.4
2018-02-27T23:02:49.800Z,1022.4
2018-02-27T23:07:49.801Z,1022.4
2018-02-27T23:12:50.017Z,1022.4
2018-02-27T23:17:50.065Z,1022.4
2018-02-27T23:22:50.014Z,1022.4
2018-02-27T23:27:50.262Z,1022.4
2018-02-27T23:32:50.042Z,1022.4
2018-02-27T23:37:50.136Z,1022.4
2018-02-27T23:42:50.022Z,1022.4
2018-02-27T23:47:50.143Z,1022.5
2018-02-27T23:52:50.004Z,1022.4
2018-02-27T23:57:50.228Z,1022.4
